Time;durP1;ratioP1;P1;durP2;ratioP2;P2;SDS_P1;SDS_P2;PMS_P1;PMS_P2;Temp;Humidity;BMP_temperature;BMP_pressure;BME280_temperature;BME280_humidity;BME280_pressure;Samples;Min_cycle;Max_cycle;Signal;HPM_P1;HPM_P2
2023/04/03 00:01:56;;;;;;;;;;;;;;;13.24;45.55;98985.50;5093403;28;19912;-41
2023/04/03 00:04:22;;;;;;;;;;;;;;;12.97;46.04;98986.06;5092979;28;19935;-41
2023/04/03 00:06:47;;;;;;;;;;;;;;;13.06;45.92;98986.47;5091171;28;19912;-41
2023/04/03 00:09:12;;;;;;;;;;;;;;;12.71;46.46;98985.53;5092901;28;19998;-41
2023/04/03 00:11:38;;;;;;;;;;;;;;;12.56;46.87;98984.41;5092917;28;20341;-41
2023/04/03 00:14:03;;;;;;;;;;;;;;;12.60;47.01;98988.22;5092925;28;19912;-41
2023/04/03 00:16:28;;;;;;;;;;;;;;;12.71;47.12;98990.06;5092892;28;19919;-41
2023/04/03 00:18:54;;;;;;;;;;;;;;;12.32;47.26;98984.44;5093134;28;20118;-41
2023/04/03 00:21:19;;;;;;;;;;;;;;;12.38;47.29;98988.84;5092940;28;20486;-41
2023/04/03 00:23:44;;;;;;;;;;;;;;;12.33;48.05;98994.88;5092689;28;20020;-41
2023/04/03 00:26:10;;;;;;;;;;;;;;;12.30;47.83;99000.69;5092745;28;19920;-41
2023/04/03 00:28:35;;;;;;;;;;;;;;;12.45;47.19;98957.53;5092828;28;19912;-41
2023/04/03 00:31:00;;;;;;;;;;;;;;;12.50;47.05;98991.50;5091251;28;20371;-41
2023/04/03 00:33:25;;;;;;;;;;;;;;;12.81;46.67;98989.47;5092791;28;20034;-41
2023/04/03 00:35:51;;;;;;;;;;;;;;;12.90;46.54;98990.72;5092562;28;20380;-41
2023/04/03 00:38:17;;;;;;;;;;;;;;;12.78;46.12;98984.59;5092611;28;19919;-41
2023/04/03 00:40:43;;;;;;;;;;;;;;;12.49;47.17;98982.69;5092370;28;19958;-41
2023/04/03 00:43:13;;;;;;;;;;;;;;;12.83;46.80;98987.38;5092584;28;20364;-41
2023/04/03 00:45:40;;;;;;;;;;;;;;;13.04;45.86;98992.06;5092330;28;19912;-41
2023/04/03 00:48:07;;;;;;;;;;;;;;;12.88;46.19;98990.94;5092373;28;20002;-41
2023/04/03 00:50:35;;;;;;;;;;;;;;;12.88;46.16;98966.13;5092334;28;19916;-41
2023/04/03 00:53:01;;;;;;;;;;;;;;;12.94;46.58;98996.41;5092055;28;20291;-42
2023/04/03 00:55:26;;;;;;;;;;;;;;;12.88;45.89;98992.81;5092091;28;19916;-41
2023/04/03 00:57:52;;;;;;;;;;;;;;;12.47;47.86;98997.28;5092207;28;20040;-41
2023/04/03 01:00:19;;;;;;;;;;;;;;;12.58;46.71;98990.31;5092184;28;20330;-41
2023/04/03 01:02:45;;;;;;;;;;;;;;;12.71;47.33;98995.41;5091612;28;19977;-41
2023/04/03 01:05:10;;;;;;;;;;;;;;;12.91;46.33;98990.47;5091933;28;19920;-41
2023/04/03 01:07:36;;;;;;;;;;;;;;;12.88;47.01;98984.81;5092269;28;20298;-41
2023/04/03 01:10:04;;;;;;;;;;;;;;;12.59;47.61;98984.75;5091876;28;19912;-41
2023/04/03 01:12:31;;;;;;;;;;;;;;;12.57;47.35;98983.38;5092077;28;19916;-41
2023/04/03 01:15:02;;;;;;;;;;;;;;;12.66;47.49;98981.94;5091754;28;19912;-41
2023/04/03 01:17:33;;;;;;;;;;;;;;;12.54;47.90;98973.16;5091794;28;19999;-41
2023/04/03 01:20:07;;;;;;;;;;;;;;;12.77;47.85;98981.09;5091439;28;19912;-41
2023/04/03 01:22:40;;;;;;;;;;;;;;;12.65;47.61;98977.66;5091683;28;20018;-41
2023/04/03 01:25:05;;;;;;;;;;;;;;;12.64;47.73;98984.88;5091598;28;19924;-41
2023/04/03 01:27:30;;;;;;;;;;;;;;;12.57;48.32;98976.19;5091480;28;20002;-41
2023/04/03 01:29:56;;;;;;;;;;;;;;;12.51;48.52;98983.25;5091348;28;20295;-41
2023/04/03 01:32:21;;;;;;;;;;;;;;;12.23;49.78;98978.63;5091353;28;19912;-41
2023/04/03 01:34:46;;;;;;;;;;;;;;;12.07;49.79;98980.16;5091437;28;19949;-41
2023/04/03 01:37:12;;;;;;;;;;;;;;;12.13;49.65;98981.91;5091414;28;20383;-41
2023/04/03 01:39:37;;;;;;;;;;;;;;;12.10;49.35;98978.88;5091420;28;19919;-41
2023/04/03 01:42:03;;;;;;;;;;;;;;;12.09;49.77;98977.28;5091494;28;19966;-42
2023/04/03 01:44:28;;;;;;;;;;;;;;;12.13;50.46;98979.22;5091492;28;19924;-41
2023/04/03 01:46:54;;;;;;;;;;;;;;;12.32;49.73;98981.78;5091249;28;19912;-41
2023/04/03 01:49:19;;;;;;;;;;;;;;;12.25;49.64;98989.09;5091186;28;20096;-41
2023/04/03 01:51:44;;;;;;;;;;;;;;;11.97;50.27;98995.09;5091120;28;19920;-41
2023/04/03 01:54:10;;;;;;;;;;;;;;;11.87;50.63;98993.78;5090953;28;19922;-41
2023/04/03 01:56:35;;;;;;;;;;;;;;;11.93;50.47;98982.22;5090761;28;19912;-41
2023/04/03 01:59:00;;;;;;;;;;;;;;;11.90;50.19;98997.88;5090935;28;19954;-41
2023/04/03 02:01:26;;;;;;;;;;;;;;;12.01;50.98;99001.59;5090866;28;20022;-40
2023/04/03 02:03:51;;;;;;;;;;;;;;;11.70;51.33;98995.50;5090694;28;20351;-40
2023/04/03 02:06:17;;;;;;;;;;;;;;;11.52;51.83;99004.38;5090933;28;20002;-41
2023/04/03 02:08:42;;;;;;;;;;;;;;;11.65;51.84;99008.69;5090721;28;19991;-41
2023/04/03 02:11:07;;;;;;;;;;;;;;;11.72;50.94;99007.53;5090757;28;19982;-41
2023/04/03 02:13:32;;;;;;;;;;;;;;;11.54;51.75;99004.97;5090442;28;20025;-41
2023/04/03 02:15:58;;;;;;;;;;;;;;;11.74;50.95;98994.78;5090102;28;19920;-41
2023/04/03 02:18:24;;;;;;;;;;;;;;;11.47;52.24;99004.25;5090546;28;19912;-41
2023/04/03 02:20:49;;;;;;;;;;;;;;;11.50;51.23;99001.94;5090700;28;19958;-41
2023/04/03 02:23:14;;;;;;;;;;;;;;;11.48;51.86;99003.19;5090372;28;19920;-41
2023/04/03 02:25:40;;;;;;;;;;;;;;;11.63;51.01;99006.28;5090335;28;20310;-42
2023/04/03 02:28:05;;;;;;;;;;;;;;;11.71;50.52;99002.47;5090117;28;19946;-41
2023/04/03 02:30:31;;;;;;;;;;;;;;;11.66;51.48;98999.66;5090407;28;19916;-41
2023/04/03 02:32:56;;;;;;;;;;;;;;;11.79;50.60;98994.13;5090323;28;20392;-42
2023/04/03 02:35:21;;;;;;;;;;;;;;;11.76;51.08;99002.56;5090344;28;19912;-41
2023/04/03 02:37:47;;;;;;;;;;;;;;;12.02;50.12;99004.03;5090302;28;19920;-42
2023/04/03 02:40:12;;;;;;;;;;;;;;;11.85;50.36;99003.06;5090247;28;19995;-41
2023/04/03 02:42:37;;;;;;;;;;;;;;;11.84;51.03;99001.44;5090111;28;19924;-41
2023/04/03 02:45:03;;;;;;;;;;;;;;;11.40;52.30;99001.66;5090196;28;19995;-42
2023/04/03 02:47:28;;;;;;;;;;;;;;;11.24;53.62;98997.00;5090360;28;19916;-41
2023/04/03 02:49:54;;;;;;;;;;;;;;;11.24;53.16;98995.13;5090363;28;19912;-41
2023/04/03 02:52:19;;;;;;;;;;;;;;;11.39;53.10;99004.56;5090039;28;19916;-41
2023/04/03 02:54:44;;;;;;;;;;;;;;;11.22;53.91;98997.22;5090279;28;19912;-41
2023/04/03 02:57:10;;;;;;;;;;;;;;;11.07;54.20;99000.28;5090239;28;20026;-41
2023/04/03 02:59:36;;;;;;;;;;;;;;;10.96;53.99;99001.03;5090153;28;19920;-41
2023/04/03 03:02:01;;;;;;;;;;;;;;;10.73;54.52;98997.19;5090558;28;19935;-42
2023/04/03 03:04:26;;;;;;;;;;;;;;;10.72;54.97;98990.25;5090746;28;20072;-42
2023/04/03 03:06:52;;;;;;;;;;;;;;;10.72;55.34;98984.94;5090598;28;19912;-40
2023/04/03 03:09:17;;;;;;;;;;;;;;;10.70;55.08;98981.69;5090869;28;19913;-42
2023/04/03 03:11:42;;;;;;;;;;;;;;;10.62;54.85;98975.84;5090473;28;20009;-42
2023/04/03 03:14:08;;;;;;;;;;;;;;;10.45;56.42;98973.78;5090732;28;19912;-42
2023/04/03 03:16:33;;;;;;;;;;;;;;;10.29;57.55;98966.34;5090658;28;19916;-41
2023/04/03 03:18:58;;;;;;;;;;;;;;;10.34;56.57;98971.84;5090451;28;19924;-41
2023/04/03 03:21:24;;;;;;;;;;;;;;;10.47;55.87;98981.53;5090708;28;19916;-42
2023/04/03 03:23:49;;;;;;;;;;;;;;;10.68;55.00;98973.13;5090669;28;19920;-41
2023/04/03 03:26:14;;;;;;;;;;;;;;;10.78;55.00;98967.28;5092318;28;19938;-41
2023/04/03 03:28:40;;;;;;;;;;;;;;;10.71;55.47;98962.00;5094589;28;19922;-41
2023/04/03 03:31:06;;;;;;;;;;;;;;;10.37;56.09;98960.75;5094726;28;19916;-40
2023/04/03 03:33:31;;;;;;;;;;;;;;;10.52;56.37;98963.06;5094195;28;19973;-41
2023/04/03 03:35:56;;;;;;;;;;;;;;;10.28;56.72;98962.06;5094467;28;19912;-41
2023/04/03 03:38:22;;;;;;;;;;;;;;;10.46;57.20;98958.63;5094287;28;19916;-41
2023/04/03 03:40:48;;;;;;;;;;;;;;;10.21;57.11;98954.16;5094106;28;19950;-42
2023/04/03 03:43:14;;;;;;;;;;;;;;;10.21;57.57;98959.47;5094091;28;20304;-41
2023/04/03 03:45:39;;;;;;;;;;;;;;;9.99;57.63;98964.38;5093511;28;19916;-41
2023/04/03 03:48:05;;;;;;;;;;;;;;;9.99;57.29;98972.34;5093787;28;19916;-41
2023/04/03 03:50:30;;;;;;;;;;;;;;;9.78;58.67;98969.03;5093434;28;19920;-41
2023/04/03 03:52:55;;;;;;;;;;;;;;;9.36;60.01;98971.41;5093967;28;19966;-41
2023/04/03 03:55:20;;;;;;;;;;;;;;;9.62;58.73;98976.75;5094053;28;19912;-42
2023/04/03 03:57:46;;;;;;;;;;;;;;;9.73;58.43;98974.22;5093820;28;19919;-40
2023/04/03 04:00:11;;;;;;;;;;;;;;;9.47;59.36;98977.88;5093272;28;19913;-40
2023/04/03 04:02:37;;;;;;;;;;;;;;;9.69;58.25;98978.34;5093275;28;19958;-41
2023/04/03 04:05:02;;;;;;;;;;;;;;;9.43;59.69;98989.94;5094165;28;19912;-41
2023/04/03 04:07:29;;;;;;;;;;;;;;;9.52;58.99;98986.00;5093858;28;19912;-41
2023/04/03 04:09:54;;;;;;;;;;;;;;;9.47;58.85;98993.00;5093814;28;20326;-41
2023/04/03 04:12:20;;;;;;;;;;;;;;;9.48;59.15;99002.56;5093129;28;19916;-41
2023/04/03 04:14:46;;;;;;;;;;;;;;;9.53;59.34;99005.41;5093738;28;19916;-41
2023/04/03 04:17:12;;;;;;;;;;;;;;;9.25;60.63;98995.16;5093725;28;19966;-41
2023/04/03 04:19:37;;;;;;;;;;;;;;;9.18;60.58;99003.97;5093557;28;19919;-42
2023/04/03 04:22:03;;;;;;;;;;;;;;;9.35;60.11;99001.66;5094316;28;19912;-42
2023/04/03 04:24:28;;;;;;;;;;;;;;;9.98;62.86;99016.72;5093156;28;19921;-42
2023/04/03 04:26:53;;;;;;;;;;;;;;;11.49;64.40;99024.28;5093663;28;19920;-42
2023/04/03 04:29:19;;;;;;;;;;;;;;;12.17;53.83;99026.78;5089329;28;20314;-41
2023/04/03 04:31:44;;;;;;;;;;;;;;;12.18;52.09;99025.72;5073257;28;19967;-41
2023/04/03 04:34:09;;;;;;;;;;;;;;;12.40;51.68;99023.31;5086687;28;20038;-38
2023/04/03 04:36:34;;;;;;;;;;;;;;;12.56;50.87;99019.09;5093201;28;19919;-41
2023/04/03 04:39:00;;;;;;;;;;;;;;;12.40;51.19;99032.13;5092167;28;19923;-37
2023/04/03 04:41:25;;;;;;;;;;;;;;;12.60;50.56;99033.59;5093165;28;19923;-37
2023/04/03 04:43:51;;;;;;;;;;;;;;;12.73;50.98;99025.34;5093164;28;19912;-36
2023/04/03 04:46:17;;;;;;;;;;;;;;;12.74;50.32;99015.47;5091862;28;20443;-42
2023/04/03 04:48:42;;;;;;;;;;;;;;;12.70;50.38;99017.81;5091735;28;19912;-42
2023/04/03 04:51:07;;;;;;;;;;;;;;;12.96;50.35;99015.66;5091947;28;20355;-41
2023/04/03 04:53:33;;;;;;;;;;;;;;;13.06;49.95;99023.88;5090346;28;19916;-41
2023/04/03 04:55:58;;;;;;;;;;;;;;;13.39;48.67;99019.72;5091060;28;19916;-42
2023/04/03 04:58:23;;;;;;;;;;;;;;;13.76;47.82;99038.00;5090272;28;20457;-42
2023/04/03 05:00:48;;;;;;;;;;;;;;;13.68;48.67;99047.25;5091074;28;19963;-41
2023/04/03 05:03:14;;;;;;;;;;;;;;;13.39;48.37;99036.56;5091378;28;19946;-41
2023/04/03 05:05:39;;;;;;;;;;;;;;;13.42;48.11;99040.63;5089720;28;20566;-41
2023/04/03 05:08:05;;;;;;;;;;;;;;;13.08;48.71;99040.50;5091540;28;19951;-41
2023/04/03 05:10:31;;;;;;;;;;;;;;;13.14;48.59;99038.75;5091990;28;19920;-43
2023/04/03 05:12:56;;;;;;;;;;;;;;;13.36;49.03;99038.91;5092456;28;19912;-41
2023/04/03 05:15:22;;;;;;;;;;;;;;;13.64;48.19;99032.75;5092028;28;20316;-42
2023/04/03 05:17:47;;;;;;;;;;;;;;;13.47;48.38;99028.16;5090136;28;19939;-42
2023/04/03 05:20:12;;;;;;;;;;;;;;;13.28;49.17;99045.41;5091137;28;19987;-43
2023/04/03 05:22:38;;;;;;;;;;;;;;;13.70;48.18;99047.81;5091034;28;19923;-41
2023/04/03 05:25:03;;;;;;;;;;;;;;;13.73;48.37;99055.34;5090710;28;20324;-42
2023/04/03 05:27:29;;;;;;;;;;;;;;;14.04;47.52;99062.03;5090155;28;19972;-40
2023/04/03 05:29:54;;;;;;;;;;;;;;;14.30;47.05;99066.97;5090567;28;19912;-42
2023/04/03 05:32:20;;;;;;;;;;;;;;;14.51;46.15;99062.72;5090571;28;20121;-42
2023/04/03 05:34:46;;;;;;;;;;;;;;;14.31;46.22;99068.59;5089657;28;19923;-42
2023/04/03 05:37:11;;;;;;;;;;;;;;;14.41;45.50;99066.91;5091066;28;20295;-41
2023/04/03 05:39:38;;;;;;;;;;;;;;;14.36;45.64;99061.47;5091432;28;19982;-42
2023/04/03 05:42:03;;;;;;;;;;;;;;;14.42;45.16;99063.16;5091817;28;19923;-42
2023/04/03 05:44:28;;;;;;;;;;;;;;;14.27;45.83;99070.94;5091044;28;19916;-40
2023/04/03 05:46:54;;;;;;;;;;;;;;;14.38;46.07;99072.72;5091423;28;19916;-42
2023/04/03 05:49:19;;;;;;;;;;;;;;;14.66;45.37;99073.72;5091209;28;19958;-41
2023/04/03 05:51:45;;;;;;;;;;;;;;;14.60;44.73;99074.69;5089935;28;20360;-41
2023/04/03 05:54:10;;;;;;;;;;;;;;;14.31;45.22;99061.38;5089808;28;19982;-41
2023/04/03 05:56:35;;;;;;;;;;;;;;;14.57;45.12;99078.66;5090329;28;19959;-41
2023/04/03 05:59:00;;;;;;;;;;;;;;;14.82;46.74;99082.75;5090599;28;19969;-42
2023/04/03 06:01:26;;;;;;;;;;;;;;;15.04;44.06;99078.22;5091327;28;20419;-41
2023/04/03 06:03:51;;;;;;;;;;;;;;;15.11;44.18;99070.00;5086364;28;19919;-42
2023/04/03 06:06:16;;;;;;;;;;;;;;;15.21;44.07;99070.13;5083822;28;20006;-41
2023/04/03 06:08:43;;;;;;;;;;;;;;;15.23;43.92;99070.69;5091001;28;19919;-41
2023/04/03 06:11:08;;;;;;;;;;;;;;;15.13;44.21;99070.56;5090016;28;20003;-41
2023/04/03 06:13:34;;;;;;;;;;;;;;;15.53;43.20;99088.16;5122983;27;20090;-41
2023/04/03 06:16:00;;;;;;;;;;;;;;;15.72;42.12;99085.94;5089663;28;19916;-41
2023/04/03 06:18:26;;;;;;;;;;;;;;;15.84;41.70;99093.91;5082911;28;19919;-42
2023/04/03 06:20:51;;;;;;;;;;;;;;;15.69;41.92;99086.47;5090825;28;19976;-40
2023/04/03 06:23:16;;;;;;;;;;;;;;;15.63;42.55;99082.94;5089600;28;20002;-41
2023/04/03 06:25:41;;;;;;;;;;;;;;;15.81;41.71;99079.09;5090799;28;19948;-41
2023/04/03 06:28:09;;;;;;;;;;;;;;;15.69;41.63;99077.59;5089964;28;19912;-42
2023/04/03 06:30:35;;;;;;;;;;;;;;;15.86;41.44;99082.88;5089770;28;19916;-41
2023/04/03 06:33:00;;;;;;;;;;;;;;;15.72;41.83;99075.22;5089660;28;19918;-42
2023/04/03 06:35:26;;;;;;;;;;;;;;;15.64;41.99;99065.75;5089909;28;19999;-42
2023/04/03 06:37:52;;;;;;;;;;;;;;;15.78;41.81;99068.06;5089270;28;19956;-42
2023/04/03 06:40:19;;;;;;;;;;;;;;;16.03;41.61;99075.56;5089316;28;19977;-41
2023/04/03 06:42:45;;;;;;;;;;;;;;;16.35;40.58;99072.81;5089417;28;19930;-42
2023/04/03 06:45:11;;;;;;;;;;;;;;;16.34;40.98;99086.53;5089748;28;20293;-44
2023/04/03 06:47:36;;;;;;;;;;;;;;;16.10;41.67;99094.13;5089916;28;19920;-41
2023/04/03 06:50:02;;;;;;;;;;;;;;;16.13;41.70;99104.34;5089873;28;20011;-41
2023/04/03 06:52:27;;;;;;;;;;;;;;;16.70;41.10;99108.28;5089771;28;20283;-41
2023/04/03 06:54:56;;;;;;;;;;;;;;;17.04;39.79;99100.69;5090336;28;19919;-43
2023/04/03 06:57:22;;;;;;;;;;;;;;;16.80;40.58;99094.88;5089484;28;19912;-42
2023/04/03 06:59:47;;;;;;;;;;;;;;;17.20;39.56;99104.25;5089843;28;19912;-43
2023/04/03 07:02:12;;;;;;;;;;;;;;;17.56;38.85;99096.31;5093512;28;19908;-41
2023/04/03 07:04:38;;;;;;;;;;;;;;;17.41;38.48;99089.00;5093763;28;20006;-43
2023/04/03 07:07:03;;;;;;;;;;;;;;;16.92;38.54;99102.78;5093716;28;20064;-41
2023/04/03 07:09:29;;;;;;;;;;;;;;;17.46;38.77;99097.09;5093653;28;19912;-42
2023/04/03 07:11:54;;;;;;;;;;;;;;;18.02;37.50;99103.69;5093804;28;20019;-42
2023/04/03 07:14:20;;;;;;;;;;;;;;;17.82;37.30;99101.75;5093697;28;20303;-42
2023/04/03 07:16:46;;;;;;;;;;;;;;;18.05;36.42;99098.59;5093800;28;19912;-42
2023/04/03 07:19:11;;;;;;;;;;;;;;;18.48;36.40;99106.38;5093842;28;19919;-41
2023/04/03 07:21:37;;;;;;;;;;;;;;;18.61;35.86;99105.81;5093542;28;20368;-41
2023/04/03 07:24:02;;;;;;;;;;;;;;;18.58;35.61;99092.09;5093325;28;19920;-42
2023/04/03 07:26:27;;;;;;;;;;;;;;;18.61;35.53;99095.06;5093641;28;19916;-42
2023/04/03 07:28:53;;;;;;;;;;;;;;;18.62;35.74;99093.16;5093282;28;19912;-42
2023/04/03 07:31:18;;;;;;;;;;;;;;;18.71;35.83;99092.31;5093069;28;20392;-42
2023/04/03 07:33:44;;;;;;;;;;;;;;;18.92;35.61;99086.91;5093219;28;19913;-42
2023/04/03 07:36:13;;;;;;;;;;;;;;;18.34;36.00;99088.06;5093336;28;19942;-41
2023/04/03 07:38:38;;;;;;;;;;;;;;;18.78;35.61;99081.28;5093480;28;19956;-41
2023/04/03 07:41:04;;;;;;;;;;;;;;;19.23;35.34;99087.63;5093394;28;19943;-40
2023/04/03 07:43:29;;;;;;;;;;;;;;;19.54;34.23;99082.06;5093432;28;20421;-40
2023/04/03 07:45:55;;;;;;;;;;;;;;;19.65;34.11;99091.72;5093118;28;19912;-42
2023/04/03 07:48:24;;;;;;;;;;;;;;;19.63;34.09;99087.69;5093374;28;19916;-42
2023/04/03 07:50:50;;;;;;;;;;;;;;;19.72;33.39;99086.88;5092786;28;19923;-40
2023/04/03 07:53:15;;;;;;;;;;;;;;;19.80;32.93;99090.03;5093227;28;20287;-41
2023/04/03 07:55:44;;;;;;;;;;;;;;;19.76;32.95;99080.88;5092961;28;19940;-41
2023/04/03 07:58:14;;;;;;;;;;;;;;;19.71;33.06;99085.22;5093034;28;20371;-40
2023/04/03 08:00:39;;;;;;;;;;;;;;;19.18;34.05;99076.06;5092686;28;20360;-41
2023/04/03 08:03:05;;;;;;;;;;;;;;;18.66;34.56;99070.00;5093018;28;19954;-41
2023/04/03 08:05:31;;;;;;;;;;;;;;;18.77;34.56;99066.16;5092948;28;20342;-41
2023/04/03 08:07:57;;;;;;;;;;;;;;;19.10;34.64;99061.25;5092777;28;20296;-41
2023/04/03 08:10:22;;;;;;;;;;;;;;;19.32;34.37;99069.78;5092280;28;19912;-41
2023/04/03 08:12:47;;;;;;;;;;;;;;;19.08;34.25;99060.72;5091064;28;19912;-41
2023/04/03 08:15:13;;;;;;;;;;;;;;;18.31;35.01;99058.97;5093219;28;19912;-42
2023/04/03 08:17:39;;;;;;;;;;;;;;;18.75;35.21;99062.94;5092853;28;20036;-41
2023/04/03 08:20:06;;;;;;;;;;;;;;;18.92;34.62;99063.50;5092293;28;20322;-42
2023/04/03 08:22:31;;;;;;;;;;;;;;;18.75;34.91;99062.94;5092219;28;19916;-41
2023/04/03 08:24:57;;;;;;;;;;;;;;;18.42;34.81;99058.97;5092374;28;19931;-41
2023/04/03 08:27:22;;;;;;;;;;;;;;;18.60;34.63;99049.50;5092980;28;20431;-42
2023/04/03 08:29:47;;;;;;;;;;;;;;;18.69;34.53;99051.38;5092823;28;20011;-42
2023/04/03 08:32:12;;;;;;;;;;;;;;;18.68;34.79;99054.38;5090150;28;19970;-41
2023/04/03 08:34:39;;;;;;;;;;;;;;;18.73;35.50;99051.63;5087774;28;20399;-41
2023/04/03 08:37:05;;;;;;;;;;;;;;;18.22;36.00;99052.53;5090453;28;19939;-41
2023/04/03 08:39:31;;;;;;;;;;;;;;;18.17;36.35;99047.16;5091855;28;20386;-42
2023/04/03 08:41:58;;;;;;;;;;;;;;;18.62;35.99;99029.31;5091076;28;20006;-38
2023/04/03 08:44:41;;;;;;;;;;;;;;;18.93;35.38;99029.25;5092052;28;19919;-37
2023/04/03 08:47:25;;;;;;;;;;;;;;;18.06;37.16;99029.38;5087293;28;20320;-37
2023/04/03 08:49:51;;;;;;;;;;;;;;;18.11;37.12;99019.44;5090749;28;19916;-36
2023/04/03 08:52:34;;;;;;;;;;;;;;;17.71;38.22;99021.00;5092423;28;19924;-37
2023/04/03 08:55:01;;;;;;;;;;;;;;;17.87;37.53;99013.78;5088664;28;20001;-36
2023/04/03 08:57:38;;;;;;;;;;;;;;;17.39;38.64;99008.59;5092303;28;19912;-43
2023/04/03 09:00:16;;;;;;;;;;;;;;;16.99;39.56;99012.78;5091631;28;19916;-48
2023/04/03 09:02:42;;;;;;;;;;;;;;;17.11;39.92;99017.91;5091020;28;19987;-35
2023/04/03 09:05:13;;;;;;;;;;;;;;;17.26;40.25;99011.78;5092282;28;20002;-37
2023/04/03 09:07:54;;;;;;;;;;;;;;;17.29;40.55;99011.25;5093946;28;19958;-36
2023/04/03 09:10:24;;;;;;;;;;;;;;;17.50;40.67;99014.81;5097685;28;19916;-42
2023/04/03 09:12:51;;;;;;;;;;;;;;;17.49;40.60;99015.84;5095227;28;19923;-43
2023/04/03 09:15:24;;;;;;;;;;;;;;;17.33;41.04;99016.91;5089303;28;19927;-36
2023/04/03 09:18:02;;;;;;;;;;;;;;;17.46;41.26;99016.41;5092512;28;19912;-41
2023/04/03 09:20:38;;;;;;;;;;;;;;;17.47;40.37;99020.69;5092019;28;19923;-38
2023/04/03 09:23:15;;;;;;;;;;;;;;;16.89;40.84;99017.31;5091662;28;19927;-38
2023/04/03 09:25:41;;;;;;;;;;;;;;;16.80;40.52;99009.72;5089858;28;19978;-36
2023/04/03 09:28:09;;;;;;;;;;;;;;;16.33;41.53;99007.03;5088156;28;20399;-36
2023/04/03 09:30:35;;;;;;;;;;;;;;;16.40;41.61;99010.31;5090662;28;19963;-36
2023/04/03 09:33:01;;;;;;;;;;;;;;;17.10;39.84;99010.13;5090973;28;20414;-36
2023/04/03 09:35:26;;;;;;;;;;;;;;;16.85;40.48;99008.13;5091346;28;19927;-37
2023/04/03 09:38:13;;;;;;;;;;;;;;;16.31;42.05;99007.28;5091355;28;19912;-36
2023/04/03 09:40:40;;;;;;;;;;;;;;;15.81;43.18;99000.50;5089120;28;19930;-36
2023/04/03 09:43:24;;;;;;;;;;;;;;;16.13;42.07;98995.09;5091356;28;19919;-37
2023/04/03 09:45:50;;;;;;;;;;;;;;;15.88;43.42;99008.31;5090079;28;19912;-37
2023/04/03 09:48:15;;;;;;;;;;;;;;;15.81;42.38;99003.19;5090772;28;19912;-36
2023/04/03 09:51:02;;;;;;;;;;;;;;;15.87;42.86;98996.78;5090895;28;19953;-38
2023/04/03 09:53:31;;;;;;;;;;;;;;;15.53;43.86;98988.16;5090806;28;19970;-38
2023/04/03 09:55:56;;;;;;;;;;;;;;;15.97;42.63;98979.97;5091085;28;20025;-36
2023/04/03 09:58:29;;;;;;;;;;;;;;;15.98;44.68;98978.91;5091322;28;20007;-37
2023/04/03 10:00:56;;;;;;;;;;;;;;;15.59;45.08;98982.59;5088874;28;19948;-36
2023/04/03 10:03:27;;;;;;;;;;;;;;;15.45;46.83;98998.25;5090190;28;19916;-43
2023/04/03 10:05:55;;;;;;;;;;;;;;;16.00;45.47;99001.72;5090581;28;19916;-40
2023/04/03 10:08:46;;;;;;;;;;;;;;;16.20;44.89;99001.06;5090777;28;19919;-42
2023/04/03 10:11:30;;;;;;;;;;;;;;;15.72;45.83;98975.19;5091106;28;19924;-36
2023/04/03 10:13:59;;;;;;;;;;;;;;;16.09;47.00;98998.56;5088715;28;19919;-36
2023/04/03 10:16:27;;;;;;;;;;;;;;;16.12;45.99;98984.63;5091062;28;20274;-34
2023/04/03 10:19:11;;;;;;;;;;;;;;;15.70;47.17;98975.44;5088067;28;20384;-36
2023/04/03 10:21:46;;;;;;;;;;;;;;;15.19;50.68;98981.13;5087750;28;19912;-37
2023/04/03 10:24:28;;;;;;;;;;;;;;;15.27;49.28;98993.28;5097311;28;20445;-36
2023/04/03 10:27:11;;;;;;;;;;;;;;;15.93;48.16;98989.59;5095484;28;19942;-37
2023/04/03 10:29:40;;;;;;;;;;;;;;;15.80;47.53;98978.25;5090656;28;20363;-35
2023/04/03 10:32:12;;;;;;;;;;;;;;;15.87;48.64;98983.38;5093383;28;19928;-37
2023/04/03 10:34:42;;;;;;;;;;;;;;;15.50;48.02;98980.59;5097264;28;19915;-43
2023/04/03 10:37:10;;;;;;;;;;;;;;;15.85;48.21;98985.50;5091636;28;19988;-42
2023/04/03 10:39:59;;;;;;;;;;;;;;;15.78;48.34;98990.28;5090900;28;19912;-43
2023/04/03 10:42:32;;;;;;;;;;;;;;;15.10;49.90;98987.16;5089738;28;19927;-43
2023/04/03 10:45:16;;;;;;;;;;;;;;;15.18;49.79;98986.75;5093275;28;19915;-42
2023/04/03 10:48:02;;;;;;;;;;;;;;;15.73;50.32;98993.72;5089007;28;19968;-42
2023/04/03 10:50:46;;;;;;;;;;;;;;;16.07;49.35;98990.78;5088628;28;19981;-45
2023/04/03 10:53:21;;;;;;;;;;;;;;;16.07;50.07;99008.72;5087455;28;20143;-44
2023/04/03 10:55:47;;;;;;;;;;;;;;;16.00;50.60;99006.28;5089087;28;19916;-43
2023/04/03 10:58:19;;;;;;;;;;;;;;;16.23;50.30;98999.72;5090329;28;19916;-45
2023/04/03 11:00:49;;;;;;;;;;;;;;;15.55;51.55;99004.78;5090090;28;19916;-43
2023/04/03 11:03:17;;;;;;;;;;;;;;;16.00;52.31;98998.22;5090466;28;19919;-42
2023/04/03 11:05:49;;;;;;;;;;;;;;;16.12;52.54;99006.91;5090430;28;19912;-42
2023/04/03 11:08:26;;;;;;;;;;;;;;;15.86;53.32;99016.66;5090069;28;19920;-45
2023/04/03 11:10:53;;;;;;;;;;;;;;;15.18;54.63;99008.97;5089879;28;19922;-42
2023/04/03 11:13:40;;;;;;;;;;;;;;;15.63;54.97;99007.00;5090371;28;20373;-42
2023/04/03 11:16:06;;;;;;;;;;;;;;;16.07;52.96;99006.88;5090312;28;19999;-43
2023/04/03 11:18:44;;;;;;;;;;;;;;;15.99;53.87;99010.03;5090157;28;20020;-42
2023/04/03 11:21:21;;;;;;;;;;;;;;;16.11;54.89;99004.50;5089775;28;19920;-44
2023/04/03 11:23:47;;;;;;;;;;;;;;;15.91;54.53;99005.94;5090137;28;19921;-43
2023/04/03 11:26:14;;;;;;;;;;;;;;;15.92;54.23;98994.16;5088019;28;19927;-43
2023/04/03 11:28:40;;;;;;;;;;;;;;;16.00;55.14;98984.81;5090026;28;19912;-42
2023/04/03 11:31:08;;;;;;;;;;;;;;;16.41;54.71;98983.22;5089687;28;20036;-42
2023/04/03 11:33:37;;;;;;;;;;;;;;;16.13;54.62;98976.31;5090019;28;20353;-43
2023/04/03 11:36:12;;;;;;;;;;;;;;;16.77;54.02;98975.31;5089959;28;20304;-43
2023/04/03 11:38:41;;;;;;;;;;;;;;;16.97;52.85;98974.59;5089958;28;19974;-41
2023/04/03 11:41:08;;;;;;;;;;;;;;;17.21;52.95;98984.91;5089996;28;20045;-43
2023/04/03 11:43:33;;;;;;;;;;;;;;;16.96;52.57;98978.38;5089672;28;20041;-43
2023/04/03 11:46:02;;;;;;;;;;;;;;;16.86;53.13;98969.47;5090254;28;20358;-43
2023/04/03 11:48:33;;;;;;;;;;;;;;;16.79;54.33;98967.81;5093498;28;19920;-42
2023/04/03 11:50:59;;;;;;;;;;;;;;;16.71;55.06;98972.88;5093051;28;19916;-44
2023/04/03 11:53:30;;;;;;;;;;;;;;;16.55;55.10;98974.69;5093403;28;20007;-41
2023/04/03 11:56:00;;;;;;;;;;;;;;;16.65;56.00;98973.91;5091835;28;19922;-43
2023/04/03 11:58:35;;;;;;;;;;;;;;;16.11;58.42;98965.03;5093567;28;19918;-42
2023/04/03 12:01:02;;;;;;;;;;;;;;;16.12;57.37;98968.53;5093529;28;19912;-43
2023/04/03 12:03:28;;;;;;;;;;;;;;;16.39;57.18;98966.56;5093298;28;19973;-43
2023/04/03 12:06:05;;;;;;;;;;;;;;;16.21;58.49;98957.03;5093325;28;19986;-42
2023/04/03 12:08:34;;;;;;;;;;;;;;;16.35;57.77;98954.69;5093620;28;19912;-44
2023/04/03 12:11:08;;;;;;;;;;;;;;;16.16;58.39;98951.66;5093089;28;19923;-44
2023/04/03 12:13:34;;;;;;;;;;;;;;;16.02;59.27;98945.13;5093286;28;19943;-44
2023/04/03 12:16:00;;;;;;;;;;;;;;;16.15;59.64;98946.53;5093250;28;19966;-43
2023/04/03 12:18:39;;;;;;;;;;;;;;;15.83;60.72;98947.41;5092456;28;19941;-43
2023/04/03 12:21:05;;;;;;;;;;;;;;;15.01;64.08;98946.63;5092631;28;20344;-41
2023/04/03 12:23:32;;;;;;;;;;;;;;;15.20;63.13;98939.06;5091050;28;19977;-48
2023/04/03 12:26:04;;;;;;;;;;;;;;;14.89;63.91;98949.47;5090906;28;19935;-36
2023/04/03 12:28:35;;;;;;;;;;;;;;;15.21;64.74;98937.97;5088555;28;19924;-37
2023/04/03 12:31:02;;;;;;;;;;;;;;;15.28;63.70;98937.78;5089178;28;19916;-37
2023/04/03 12:33:45;;;;;;;;;;;;;;;15.39;63.58;98936.81;5091425;28;19923;-37
2023/04/03 12:36:15;;;;;;;;;;;;;;;15.24;65.67;98924.09;5091833;28;19919;-37
2023/04/03 12:38:59;;;;;;;;;;;;;;;15.22;66.19;98924.34;5089832;28;20284;-37
2023/04/03 12:41:39;;;;;;;;;;;;;;;15.79;63.95;98928.31;5087012;28;20478;-37
2023/04/03 12:44:23;;;;;;;;;;;;;;;15.63;64.46;98926.56;5071761;28;19912;-36
2023/04/03 12:46:50;;;;;;;;;;;;;;;15.66;65.48;98927.94;5071186;28;19960;-35
2023/04/03 12:49:35;;;;;;;;;;;;;;;15.95;64.85;98923.06;5070608;28;20029;-36
2023/04/03 12:52:02;;;;;;;;;;;;;;;16.11;63.41;98924.78;5070460;28;19916;-37